Terminal Aerodrome Forecast
Issued by NWS

Home | Current Version | Previous Version | Text Only | Print | Product List | Glossary On
Versions: 1 2 3 4 5 6 7 8 9 10 11 12 13
920
FTUS44 KJAN 231139
TAFGTR
TAF
KGTR 231139Z 2312/2412 00000KT 6SM BR SCT250
     FM231400 24003KT P6SM SCT030
     FM231700 23004KT P6SM VCTS SCT050CB
     FM240100 00000KT P6SM BKN250=

USA.gov is the U.S. government's official web portal to all federal, state and local government web resources and services.